createdAt,value
2018-05-15T00:01:39.000Z,31.6
2018-05-15T00:03:39.000Z,31.6
2018-05-15T00:04:39.000Z,31.6
2018-05-15T00:06:39.000Z,31.6
2018-05-15T00:07:39.000Z,31.6
2018-05-15T00:09:24.000Z,31.6
2018-05-15T00:10:39.000Z,31.6
2018-05-15T00:12:39.000Z,31.6
2018-05-15T00:14:39.000Z,31.5
2018-05-15T00:16:39.000Z,31.4
2018-05-15T00:17:39.000Z,31.5
2018-05-15T00:19:39.000Z,31.5
2018-05-15T00:20:39.000Z,31.5
2018-05-15T00:21:39.000Z,31.5
2018-05-15T00:23:39.000Z,31.6
2018-05-15T00:24:39.000Z,31.6
2018-05-15T00:25:39.000Z,31.7
2018-05-15T00:26:39.000Z,31.8
2018-05-15T00:28:39.000Z,31.9
2018-05-15T00:29:39.000Z,31.9
2018-05-15T00:31:39.000Z,31.8
2018-05-15T00:32:39.000Z,31.8
2018-05-15T00:33:39.000Z,31.9
2018-05-15T00:35:39.000Z,31.9
2018-05-15T00:37:24.000Z,31.8
2018-05-15T00:38:39.000Z,31.7
2018-05-15T00:39:39.000Z,31.7
2018-05-15T00:41:39.000Z,31.7
2018-05-15T00:43:39.000Z,31.7
2018-05-15T00:45:39.000Z,31.6
2018-05-15T00:47:39.000Z,31.5
2018-05-15T00:49:39.000Z,31.4
2018-05-15T00:50:39.000Z,31.5
2018-05-15T00:51:39.000Z,31.5
2018-05-15T00:53:40.000Z,31.5
2018-05-15T00:55:40.000Z,31.5
2018-05-15T00:57:40.000Z,31.5
2018-05-15T00:59:40.000Z,31.5
2018-05-15T01:01:40.000Z,31.5
2018-05-15T01:03:40.000Z,31.5
2018-05-15T01:05:40.000Z,31.5
2018-05-15T01:06:40.000Z,31.5
2018-05-15T01:08:40.000Z,31.6
2018-05-15T01:09:40.000Z,31.6
2018-05-15T01:11:40.000Z,31.6
2018-05-15T01:13:25.000Z,31.5
2018-05-15T01:14:40.000Z,31.5
2018-05-15T01:16:40.000Z,31.4
2018-05-15T01:17:40.000Z,31.5
2018-05-15T01:19:40.000Z,31.5
2018-05-15T01:20:40.000Z,31.4
2018-05-15T01:21:40.000Z,31.5
2018-05-15T01:23:40.000Z,31.5
2018-05-15T01:25:40.000Z,31.5
2018-05-15T01:26:40.000Z,31.5
2018-05-15T01:27:40.000Z,31.6
2018-05-15T01:29:40.000Z,31.6
2018-05-15T01:30:40.000Z,31.6
2018-05-15T01:32:40.000Z,31.6
2018-05-15T01:33:40.000Z,31.6
2018-05-15T01:35:40.000Z,31.6
2018-05-15T01:36:40.000Z,31.6
2018-05-15T01:38:25.000Z,31.7
2018-05-15T01:39:40.000Z,31.6
2018-05-15T01:40:40.000Z,31.6
2018-05-15T01:42:40.000Z,31.6
2018-05-15T01:44:40.000Z,31.6
2018-05-15T01:46:25.000Z,31.5
2018-05-15T01:47:40.000Z,31.4
2018-05-15T01:48:40.000Z,31.4
2018-05-15T01:49:40.000Z,31.5
2018-05-15T01:51:40.000Z,31.6
2018-05-15T01:53:40.000Z,31.5
2018-05-15T01:55:25.000Z,31.5
2018-05-15T01:56:39.000Z,31.4
2018-05-15T01:57:39.000Z,31.4
2018-05-15T01:59:24.000Z,31.5
2018-05-15T02:00:39.000Z,31.5
2018-05-15T02:01:39.000Z,31.5
2018-05-15T02:02:39.000Z,31.6
2018-05-15T02:04:39.000Z,31.5
2018-05-15T02:05:39.000Z,31.4
2018-05-15T02:07:39.000Z,31.5
2018-05-15T02:08:39.000Z,31.5
2018-05-15T02:09:39.000Z,31.6
2018-05-15T02:11:39.000Z,31.6
2018-05-15T02:13:39.000Z,31.5
2018-05-15T02:15:39.000Z,31.5
2018-05-15T02:16:39.000Z,31.5
2018-05-15T02:17:39.000Z,31.5
2018-05-15T02:19:24.000Z,31.6
2018-05-15T02:20:39.000Z,31.5
2018-05-15T02:21:39.000Z,31.5
2018-05-15T02:23:24.000Z,31.5
2018-05-15T02:24:39.000Z,31.5
2018-05-15T02:26:24.000Z,31.5
2018-05-15T02:27:39.000Z,31.5
2018-05-15T02:28:39.000Z,31.5
2018-05-15T02:29:39.000Z,31.5
2018-05-15T02:30:39.000Z,31.5
2018-05-15T02:32:39.000Z,31.5
2018-05-15T02:34:39.000Z,31.5
2018-05-15T02:36:39.000Z,31.4
2018-05-15T02:37:39.000Z,31.4
2018-05-15T02:39:39.000Z,31.4
2018-05-15T02:41:39.000Z,31.4
2018-05-15T02:43:39.000Z,31.3
2018-05-15T02:45:24.000Z,31.3
2018-05-15T02:46:39.000Z,31.3
2018-05-15T02:47:39.000Z,31.3
2018-05-15T02:48:39.000Z,31.3
2018-05-15T02:50:39.000Z,31.3
2018-05-15T02:52:39.000Z,31.3
2018-05-15T02:53:39.000Z,31.3
2018-05-15T02:55:39.000Z,31.3
2018-05-15T02:57:39.000Z,31.2
2018-05-15T02:58:39.000Z,31.3
2018-05-15T03:00:25.000Z,31.3
2018-05-15T03:01:40.000Z,31.3
2018-05-15T03:03:40.000Z,31.3
2018-05-15T03:05:40.000Z,31.1
2018-05-15T03:06:40.000Z,31.1
2018-05-15T03:07:40.000Z,31.2
2018-05-15T03:09:40.000Z,31.3
2018-05-15T03:11:40.000Z,31.2
2018-05-15T03:12:40.000Z,31.2
2018-05-15T03:14:40.000Z,31.2
2018-05-15T03:15:40.000Z,31.2
2018-05-15T03:17:40.000Z,31.3
2018-05-15T03:19:40.000Z,31.3
2018-05-15T03:21:40.000Z,31.3
2018-05-15T03:22:40.000Z,31.3
2018-05-15T03:23:40.000Z,31.3
2018-05-15T03:24:40.000Z,31.3
2018-05-15T03:25:40.000Z,31.3
2018-05-15T03:26:40.000Z,31.4
2018-05-15T03:28:40.000Z,31.4
2018-05-15T03:30:25.000Z,31.4
2018-05-15T03:31:40.000Z,31.3
2018-05-15T03:33:40.000Z,31.2
2018-05-15T03:35:40.000Z,31.2
2018-05-15T03:37:40.000Z,31.2
2018-05-15T03:38:40.000Z,31.2
2018-05-15T03:39:40.000Z,31.2
2018-05-15T03:41:40.000Z,31.2
2018-05-15T03:42:40.000Z,31.2
2018-05-15T03:43:40.000Z,31.3
2018-05-15T03:44:40.000Z,31.3
2018-05-15T03:46:40.000Z,31.4
2018-05-15T03:48:40.000Z,31.4
2018-05-15T03:50:40.000Z,31.3
2018-05-15T03:51:40.000Z,31.3
2018-05-15T03:52:40.000Z,31.3
2018-05-15T03:54:40.000Z,31.3
2018-05-15T03:55:40.000Z,31.3
2018-05-15T03:56:40.000Z,31.4
2018-05-15T03:57:40.000Z,31.4
2018-05-15T03:59:40.000Z,31.4
2018-05-15T04:00:40.000Z,31.4
2018-05-15T04:02:40.000Z,31.4
2018-05-15T04:04:40.000Z,31.4
2018-05-15T04:05:40.000Z,31.4
2018-05-15T04:06:40.000Z,31.4
2018-05-15T04:08:40.000Z,31.4
2018-05-15T04:10:24.000Z,31.4
2018-05-15T04:11:40.000Z,31.3
2018-05-15T04:12:40.000Z,31.4
2018-05-15T04:14:24.000Z,31.4
2018-05-15T04:15:40.000Z,31.4
2018-05-15T04:17:40.000Z,31.3
2018-05-15T04:19:40.000Z,31.3
2018-05-15T04:21:40.000Z,31.2
2018-05-15T04:22:40.000Z,31.2
2018-05-15T04:23:40.000Z,31.3
2018-05-15T04:24:40.000Z,31.3
2018-05-15T04:26:40.000Z,30.8
2018-05-15T04:27:40.000Z,30.5
2018-05-15T04:29:40.000Z,29.8
2018-05-15T04:30:40.000Z,29.6
2018-05-15T04:32:40.000Z,29.2
2018-05-15T04:34:40.000Z,29
2018-05-15T04:35:40.000Z,28.9
2018-05-15T04:39:40.000Z,28.8
2018-05-15T04:41:40.000Z,28.7
2018-05-15T04:42:40.000Z,28.7
2018-05-15T04:43:40.000Z,28.7
2018-05-15T04:45:40.000Z,28.6
2018-05-15T04:47:40.000Z,28.5
2018-05-15T04:49:40.000Z,28.3
2018-05-15T04:51:40.000Z,28.2
2018-05-15T04:52:40.000Z,28.2
2018-05-15T04:54:40.000Z,28.2
2018-05-15T04:55:40.000Z,28.3
2018-05-15T04:57:40.000Z,28.3
2018-05-15T04:58:40.000Z,28.3
2018-05-15T04:59:40.000Z,28.3
2018-05-15T05:01:40.000Z,28.2
2018-05-15T05:03:25.000Z,28.1
2018-05-15T05:04:40.000Z,28
2018-05-15T05:05:40.000Z,28
2018-05-15T05:06:40.000Z,28
2018-05-15T05:08:40.000Z,27.9
2018-05-15T05:10:40.000Z,27.8
2018-05-15T05:11:40.000Z,27.8
2018-05-15T05:12:40.000Z,27.7
2018-05-15T05:13:40.000Z,27.7
2018-05-15T05:14:40.000Z,27.8
2018-05-15T05:16:24.000Z,27.8
2018-05-15T05:17:40.000Z,27.8
2018-05-15T05:19:40.000Z,27.8
2018-05-15T05:21:40.000Z,27.8
2018-05-15T05:23:40.000Z,27.8
2018-05-15T05:24:40.000Z,27.9
2018-05-15T05:25:40.000Z,27.9
2018-05-15T05:27:24.000Z,28
2018-05-15T05:28:40.000Z,28
2018-05-15T05:30:40.000Z,27.9
2018-05-15T05:31:40.000Z,27.9
2018-05-15T05:32:40.000Z,28
2018-05-15T05:34:40.000Z,28
2018-05-15T05:35:40.000Z,27.9
2018-05-15T05:37:24.000Z,28
2018-05-15T05:38:40.000Z,28
2018-05-15T05:39:40.000Z,28
2018-05-15T05:41:40.000Z,28.1
2018-05-15T05:42:40.000Z,28.2
2018-05-15T05:44:40.000Z,28.2
2018-05-15T05:46:40.000Z,28.2
2018-05-15T05:48:40.000Z,28.1
2018-05-15T05:49:40.000Z,28.1
2018-05-15T05:50:40.000Z,28.2
2018-05-15T05:51:40.000Z,28.3
2018-05-15T05:53:40.000Z,28.4
2018-05-15T05:55:40.000Z,28.4
2018-05-15T05:56:40.000Z,28.4
2018-05-15T05:57:40.000Z,28.4
2018-05-15T05:59:40.000Z,28.5
2018-05-15T06:01:40.000Z,28.5
2018-05-15T06:02:40.000Z,28.5
2018-05-15T06:04:40.000Z,28.5
2018-05-15T06:06:40.000Z,28.6
2018-05-15T06:08:40.000Z,28.5
2018-05-15T06:10:40.000Z,28.5
2018-05-15T06:11:40.000Z,28.6
2018-05-15T06:12:40.000Z,28.7
2018-05-15T06:14:40.000Z,28.8
2018-05-15T06:16:25.000Z,28.7
2018-05-15T06:17:40.000Z,28.7
2018-05-15T06:18:40.000Z,28.8
2018-05-15T06:20:40.000Z,29
2018-05-15T06:21:40.000Z,29.1
2018-05-15T06:23:40.000Z,29.1
2018-05-15T06:25:40.000Z,29.1
2018-05-15T06:27:40.000Z,29.1
2018-05-15T06:28:40.000Z,29.2
2018-05-15T06:30:40.000Z,29.1
2018-05-15T06:32:40.000Z,29
2018-05-15T06:34:40.000Z,29
2018-05-15T06:36:40.000Z,28.9
2018-05-15T06:37:40.000Z,28.9
2018-05-15T06:38:40.000Z,29
2018-05-15T06:39:40.000Z,29.1
2018-05-15T06:41:40.000Z,29.3
2018-05-15T06:43:40.000Z,29.3
2018-05-15T06:44:40.000Z,29.3
2018-05-15T06:46:40.000Z,29.4
2018-05-15T06:47:40.000Z,29.4
2018-05-15T06:49:40.000Z,29.2
2018-05-15T06:51:40.000Z,29.1
2018-05-15T06:52:40.000Z,29.1
2018-05-15T06:54:25.000Z,29.1
2018-05-15T06:55:40.000Z,29.2
2018-05-15T06:57:40.000Z,29.2
2018-05-15T06:58:40.000Z,29.2
2018-05-15T06:59:40.000Z,29.3
2018-05-15T07:01:40.000Z,29.3
2018-05-15T07:02:40.000Z,29.4
2018-05-15T07:03:40.000Z,29.5
2018-05-15T07:04:40.000Z,29.5
2018-05-15T07:05:40.000Z,29.6
2018-05-15T07:06:40.000Z,29.8
2018-05-15T07:07:40.000Z,29.8
2018-05-15T07:09:40.000Z,29.9
2018-05-15T07:10:40.000Z,30
2018-05-15T07:12:40.000Z,30.1
2018-05-15T07:14:39.000Z,30.1
2018-05-15T07:15:39.000Z,30.2
2018-05-15T07:16:39.000Z,30.2
2018-05-15T07:18:39.000Z,30.2
2018-05-15T07:20:39.000Z,30.1
2018-05-15T07:22:39.000Z,30.1
2018-05-15T07:23:39.000Z,30.1
2018-05-15T07:24:39.000Z,30.2
2018-05-15T07:26:39.000Z,30.4
2018-05-15T07:28:39.000Z,30.5
2018-05-15T07:29:39.000Z,30.5
2018-05-15T07:31:39.000Z,30.6
2018-05-15T07:32:39.000Z,30.6
2018-05-15T07:33:39.000Z,30.7
2018-05-15T07:35:39.000Z,30.8
2018-05-15T07:36:39.000Z,30.8
2018-05-15T07:38:39.000Z,30.8
2018-05-15T07:40:39.000Z,30.7
2018-05-15T07:41:39.000Z,30.6
2018-05-15T07:43:39.000Z,30.5
2018-05-15T07:44:39.000Z,30.6
2018-05-15T07:46:39.000Z,30.7
2018-05-15T07:48:39.000Z,30.7
2018-05-15T07:49:39.000Z,30.7
2018-05-15T07:50:39.000Z,30.8
2018-05-15T07:51:39.000Z,30.9
2018-05-15T07:52:39.000Z,30.9
2018-05-15T08:35:28.000Z,28.7
2018-05-15T08:37:14.000Z,28.9
2018-05-15T08:39:14.000Z,29.3
2018-05-15T08:40:14.000Z,29.5
2018-05-15T08:42:14.000Z,29.8
2018-05-15T08:43:14.000Z,30
2018-05-15T08:44:14.000Z,30.1
2018-05-15T08:45:14.000Z,30.2
2018-05-15T08:46:14.000Z,30.3
2018-05-15T08:48:14.000Z,30.3
2018-05-15T08:50:14.000Z,30.3
2018-05-15T08:52:14.000Z,30.2
2018-05-15T08:54:14.000Z,30.1
2018-05-15T08:55:14.000Z,30.2
2018-05-15T08:57:14.000Z,30.4
2018-05-15T08:59:14.000Z,30.5
2018-05-15T09:00:14.000Z,30.5
2018-05-15T09:02:14.000Z,30.4
2018-05-15T09:04:14.000Z,30.4
2018-05-15T09:05:14.000Z,30.4
2018-05-15T09:07:14.000Z,30.5
2018-05-15T09:09:14.000Z,30.6
2018-05-15T09:11:14.000Z,30.5
2018-05-15T09:12:14.000Z,30.5
2018-05-15T09:14:14.000Z,30.6
2018-05-15T09:16:14.000Z,30.7
2018-05-15T09:18:14.000Z,30.8
2018-05-15T09:19:14.000Z,30.8
2018-05-15T09:20:14.000Z,30.9
2018-05-15T09:22:14.000Z,31
2018-05-15T09:23:59.000Z,30.9
2018-05-15T09:25:14.000Z,30.9
2018-05-15T09:27:14.000Z,30.9
2018-05-15T09:29:14.000Z,30.9
2018-05-15T09:30:14.000Z,31
2018-05-15T09:32:14.000Z,31.1
2018-05-15T09:33:59.000Z,31.1
2018-05-15T09:35:14.000Z,31
2018-05-15T09:36:14.000Z,31
2018-05-15T09:37:14.000Z,31
2018-05-15T09:38:14.000Z,31.1
2018-05-15T09:40:14.000Z,31.1
2018-05-15T09:41:14.000Z,31.1
2018-05-15T09:43:14.000Z,31.1
2018-05-15T09:44:59.000Z,31.2
2018-05-15T09:46:14.000Z,31.1
2018-05-15T09:47:14.000Z,31.1
2018-05-15T09:49:14.000Z,31.2
2018-05-15T09:50:14.000Z,31.2
2018-05-15T09:51:59.000Z,31.3
2018-05-15T09:53:14.000Z,31.2
2018-05-15T09:55:14.000Z,31.2
2018-05-15T09:57:14.000Z,31.1
2018-05-15T09:59:14.000Z,31.1
2018-05-15T10:01:14.000Z,31.1
2018-05-15T10:03:14.000Z,31.2
2018-05-15T10:04:59.000Z,31.4
2018-05-15T10:06:14.000Z,31.4
2018-05-15T10:07:14.000Z,31.4
2018-05-15T10:09:14.000Z,31.5
2018-05-15T10:11:14.000Z,31.5
2018-05-15T10:13:14.000Z,31.4
2018-05-15T10:15:14.000Z,31.4
2018-05-15T10:17:14.000Z,31.3
2018-05-15T10:19:14.000Z,31.3
2018-05-15T10:21:14.000Z,31.3
2018-05-15T10:23:14.000Z,31.4
2018-05-15T10:24:14.000Z,31.5
2018-05-15T10:26:14.000Z,31.6
2018-05-15T10:27:14.000Z,31.6
2018-05-15T10:29:14.000Z,31.6
2018-05-15T10:31:14.000Z,31.7
2018-05-15T10:32:14.000Z,31.7
2018-05-15T10:33:14.000Z,31.8
2018-05-15T10:35:14.000Z,31.9
2018-05-15T10:37:14.000Z,31.9
2018-05-15T10:39:14.000Z,31.9
2018-05-15T10:41:14.000Z,31.8
2018-05-15T10:43:14.000Z,31.8
2018-05-15T10:44:14.000Z,31.9
2018-05-15T10:45:14.000Z,31.9
2018-05-15T10:47:14.000Z,32.1
2018-05-15T10:48:14.000Z,32.2
2018-05-15T10:49:14.000Z,32.2
2018-05-15T10:51:14.000Z,32.3
2018-05-15T10:52:14.000Z,32.3
2018-05-15T10:53:14.000Z,32.3
2018-05-15T10:55:14.000Z,32.4
2018-05-15T10:56:14.000Z,32.5
2018-05-15T10:57:14.000Z,32.5
2018-05-15T10:59:14.000Z,32.5
2018-05-15T11:00:14.000Z,32.5
2018-05-15T11:02:14.000Z,32.5
2018-05-15T11:04:14.000Z,32.4
2018-05-15T11:06:14.000Z,32.3
2018-05-15T11:08:14.000Z,32.3
2018-05-15T11:10:14.000Z,32.3
2018-05-15T11:11:14.000Z,32.3
2018-05-15T11:13:14.000Z,32.3
2018-05-15T11:15:14.000Z,32.3
2018-05-15T11:17:14.000Z,32.3
2018-05-15T11:19:14.000Z,32.3
2018-05-15T11:20:14.000Z,32.3
2018-05-15T11:21:59.000Z,32.4
2018-05-15T11:23:14.000Z,32.4
2018-05-15T11:25:14.000Z,32.3
2018-05-15T11:26:14.000Z,32.3
2018-05-15T11:28:14.000Z,32.3
2018-05-15T11:29:14.000Z,32.3
2018-05-15T11:30:59.000Z,32.3
2018-05-15T11:32:14.000Z,32.4
2018-05-15T11:33:14.000Z,32.4
2018-05-15T11:34:14.000Z,32.4
2018-05-15T11:36:14.000Z,32.5
2018-05-15T11:38:14.000Z,32.5
2018-05-15T11:40:14.000Z,32.4
2018-05-15T11:42:14.000Z,32.3
2018-05-15T11:44:14.000Z,32.3
2018-05-15T11:46:14.000Z,32.2
2018-05-15T11:47:14.000Z,32.3
2018-05-15T11:48:14.000Z,32.3
2018-05-15T11:50:14.000Z,33.1
2018-05-15T11:51:14.000Z,34.5
2018-05-15T11:52:14.000Z,36
2018-05-15T11:54:14.000Z,38.3
2018-05-15T11:55:14.000Z,39.2
2018-05-15T11:56:14.000Z,39.9
2018-05-15T11:58:14.000Z,40.9
2018-05-15T12:00:14.000Z,40.5
2018-05-15T12:01:14.000Z,39.5
2018-05-15T12:02:14.000Z,38.5
2018-05-15T12:04:14.000Z,37
2018-05-15T12:06:14.000Z,35.9
2018-05-15T12:07:14.000Z,35.5
2018-05-15T12:09:14.000Z,34.9
2018-05-15T12:10:14.000Z,34.6
2018-05-15T12:11:59.000Z,34.3
2018-05-15T12:13:14.000Z,34
2018-05-15T12:14:14.000Z,33.8
2018-05-15T12:15:14.000Z,33.8
2018-05-15T12:17:14.000Z,33.6
2018-05-15T12:18:14.000Z,33.5
2018-05-15T12:19:59.000Z,33.4
2018-05-15T12:21:14.000Z,33.3
2018-05-15T12:23:14.000Z,33.2
2018-05-15T12:25:14.000Z,33.1
2018-05-15T12:27:14.000Z,32.9
2018-05-15T12:28:14.000Z,32.9
2018-05-15T12:30:14.000Z,32.8
2018-05-15T12:32:14.000Z,32.7
2018-05-15T12:33:14.000Z,32.7
2018-05-15T12:34:14.000Z,32.7
2018-05-15T12:36:14.000Z,32.7
2018-05-15T12:37:14.000Z,32.7
2018-05-15T12:39:14.000Z,32.7
2018-05-15T12:40:14.000Z,32.7
2018-05-15T12:42:14.000Z,32.7
2018-05-15T12:44:14.000Z,32.7
2018-05-15T12:45:14.000Z,32.7
2018-05-15T12:46:14.000Z,32.7
2018-05-15T12:48:14.000Z,32.7
2018-05-15T12:49:59.000Z,32.4
2018-05-15T12:51:14.000Z,32.6
2018-05-15T12:53:14.000Z,32.5
2018-05-15T12:55:14.000Z,32.4
2018-05-15T12:59:00.000Z,32
2018-05-15T13:01:00.000Z,31.9
2018-05-15T13:03:00.000Z,31.9
2018-05-15T13:04:00.000Z,32
2018-05-15T13:06:00.000Z,32.2
2018-05-15T13:08:00.000Z,32.2
2018-05-15T13:10:00.000Z,32.2
2018-05-15T13:12:00.000Z,32.3
2018-05-15T13:13:00.000Z,32.3
2018-05-15T13:15:00.000Z,32.4
2018-05-15T13:17:00.000Z,32.4
2018-05-15T13:18:00.000Z,32.4
2018-05-15T13:20:00.000Z,32.4
2018-05-15T13:22:00.000Z,32.3
2018-05-15T13:24:00.000Z,32.3
2018-05-15T13:26:00.000Z,32.4
2018-05-15T13:28:00.000Z,32.4
2018-05-15T13:30:00.000Z,32.4
2018-05-15T13:32:00.000Z,32.4
2018-05-15T13:33:45.000Z,32.4
2018-05-15T13:35:00.000Z,32.4
2018-05-15T13:37:00.000Z,32.4
2018-05-15T13:39:00.000Z,32.3
2018-05-15T13:41:00.000Z,32.4
2018-05-15T13:43:00.000Z,32.5
2018-05-15T13:45:00.000Z,32.4
2018-05-15T13:47:00.000Z,32.4
2018-05-15T13:49:00.000Z,32.4
2018-05-15T13:50:00.000Z,32.4
2018-05-15T13:52:00.000Z,32.4
2018-05-15T13:53:00.000Z,32.4
2018-05-15T13:55:00.000Z,32.4
2018-05-15T13:56:00.000Z,32.4
2018-05-15T13:58:00.000Z,32.5
2018-05-15T14:00:00.000Z,32.6
2018-05-15T14:01:45.000Z,32.6
2018-05-15T14:03:00.000Z,32.5
2018-05-15T14:04:00.000Z,32.5
2018-05-15T14:05:00.000Z,32.6
2018-05-15T14:07:00.000Z,32.6
2018-05-15T14:08:00.000Z,32.6
2018-05-15T14:10:00.000Z,32.6
2018-05-15T14:12:00.000Z,32.6
2018-05-15T14:14:00.000Z,32.6
2018-05-15T14:16:00.000Z,32.6
2018-05-15T14:17:00.000Z,32.6
2018-05-15T14:19:00.000Z,32.6
2018-05-15T14:21:00.000Z,32.6
2018-05-15T14:22:00.000Z,32.6
2018-05-15T14:23:45.000Z,32.6
2018-05-15T14:25:00.000Z,32.6
2018-05-15T14:27:00.000Z,32.5
2018-05-15T14:28:00.000Z,32.5
2018-05-15T14:30:00.000Z,32.6
2018-05-15T14:31:00.000Z,32.6
2018-05-15T14:33:00.000Z,32.6
2018-05-15T14:35:00.000Z,32.5
2018-05-15T14:37:00.000Z,32.5
2018-05-15T14:39:00.000Z,32.4
2018-05-15T14:40:00.000Z,32.4
2018-05-15T14:41:00.000Z,32.5
2018-05-15T14:42:00.000Z,32.5
2018-05-15T14:44:00.000Z,32.5
2018-05-15T14:46:00.000Z,32.5
2018-05-15T14:48:00.000Z,32.4
2018-05-15T14:49:00.000Z,32.4
2018-05-15T14:50:00.000Z,32.4
2018-05-15T14:51:00.000Z,32.5
2018-05-15T14:53:00.000Z,32.6
2018-05-15T14:54:45.000Z,32.6
2018-05-15T14:56:00.000Z,32.5
2018-05-15T14:57:00.000Z,32.5
2018-05-15T14:58:00.000Z,32.6
2018-05-15T15:00:00.000Z,32.7
2018-05-15T15:02:00.000Z,32.6
2018-05-15T15:03:00.000Z,32.6
2018-05-15T15:04:45.000Z,32.7
2018-05-15T15:06:00.000Z,32.6
2018-05-15T15:08:00.000Z,32.6
2018-05-15T15:09:00.000Z,32.6
2018-05-15T15:10:45.000Z,32.6
2018-05-15T15:12:00.000Z,32.6
2018-05-15T15:13:00.000Z,32.6
2018-05-15T15:15:00.000Z,32.6
2018-05-15T15:16:00.000Z,32.6
2018-05-15T15:17:00.000Z,32.6
2018-05-15T15:18:00.000Z,32.6
2018-05-15T15:20:00.000Z,32.6
2018-05-15T15:21:00.000Z,32.6
2018-05-15T15:23:00.000Z,32.6
2018-05-15T15:24:00.000Z,32.6
2018-05-15T15:25:00.000Z,32.6
2018-05-15T15:26:00.000Z,32.6
2018-05-15T15:27:00.000Z,32.7
2018-05-15T15:29:00.000Z,32.7
2018-05-15T15:31:00.000Z,32.6
2018-05-15T15:33:00.000Z,32.5
2018-05-15T15:34:00.000Z,32.5
2018-05-15T15:35:00.000Z,32.5
2018-05-15T15:36:00.000Z,32.5
2018-05-15T15:38:00.000Z,32.6
2018-05-15T15:40:00.000Z,32.5
2018-05-15T15:42:00.000Z,32.4
2018-05-15T15:43:00.000Z,32.4
2018-05-15T15:44:00.000Z,32.4
2018-05-15T15:45:45.000Z,32.5
2018-05-15T15:47:00.000Z,32.5
2018-05-15T15:49:00.000Z,32.5
2018-05-15T15:51:00.000Z,32.4
2018-05-15T15:52:45.000Z,32.3
2018-05-15T15:54:00.000Z,32.3
2018-05-15T15:56:00.000Z,32.3
2018-05-15T15:57:45.000Z,32.3
2018-05-15T15:59:00.000Z,32.2
2018-05-15T16:00:00.000Z,32.3
2018-05-15T16:02:00.000Z,32.3
2018-05-15T16:04:00.000Z,32.3
2018-05-15T16:05:00.000Z,32.3
2018-05-15T16:07:00.000Z,32.4
2018-05-15T16:09:00.000Z,32.4
2018-05-15T16:11:00.000Z,32.3
2018-05-15T16:13:00.000Z,32.3
2018-05-15T16:15:00.000Z,32.3
2018-05-15T16:16:00.000Z,32.3
2018-05-15T16:18:00.000Z,32.3
2018-05-15T16:19:00.000Z,32.4
2018-05-15T16:20:00.000Z,32.4
2018-05-15T16:21:00.000Z,32.4
2018-05-15T16:22:00.000Z,32.5
2018-05-15T16:24:00.000Z,32.5
2018-05-15T16:26:00.000Z,32.5
2018-05-15T16:27:45.000Z,32.5
2018-05-15T16:29:00.000Z,32.4
2018-05-15T16:30:00.000Z,32.4
2018-05-15T16:31:00.000Z,32.4
2018-05-15T16:33:00.000Z,32.5
2018-05-15T16:34:00.000Z,32.5
2018-05-15T16:36:00.000Z,32.5
2018-05-15T16:38:00.000Z,32.5
2018-05-15T16:40:00.000Z,32.3
2018-05-15T16:42:00.000Z,32.2
2018-05-15T16:43:00.000Z,32.2
2018-05-15T16:45:00.000Z,32.2
2018-05-15T16:46:00.000Z,32.2
2018-05-15T16:48:00.000Z,32.3
2018-05-15T16:50:00.000Z,32.3
2018-05-15T16:52:00.000Z,32.3
2018-05-15T16:54:00.000Z,32.2
2018-05-15T16:55:00.000Z,32.2
2018-05-15T16:56:44.000Z,32.2
2018-05-15T16:58:00.000Z,32.2
2018-05-15T16:59:00.000Z,32.2
2018-05-15T17:00:44.000Z,32.3
2018-05-15T17:02:00.000Z,32.3
2018-05-15T17:03:00.000Z,32.3
2018-05-15T17:04:44.000Z,32.3
2018-05-15T17:06:00.000Z,32.3
2018-05-15T17:07:00.000Z,32.3
2018-05-15T17:08:00.000Z,32.4
2018-05-15T17:10:00.000Z,32.5
2018-05-15T17:12:00.000Z,32.5
2018-05-15T17:14:00.000Z,32.5
2018-05-15T17:15:00.000Z,32.5
2018-05-15T17:16:00.000Z,32.6
2018-05-15T17:17:00.000Z,32.7
2018-05-15T17:18:00.000Z,32.7
2018-05-15T17:20:00.000Z,32.8
2018-05-15T17:22:00.000Z,32.8
2018-05-15T17:23:00.000Z,32.8
2018-05-15T17:24:00.000Z,32.8
2018-05-15T17:25:00.000Z,32.8
2018-05-15T17:26:00.000Z,32.9
2018-05-15T17:28:00.000Z,32.9
2018-05-15T17:29:00.000Z,32.9
2018-05-15T17:31:00.000Z,32.9
2018-05-15T17:33:00.000Z,32.9
2018-05-15T17:35:00.000Z,32.8
2018-05-15T17:37:00.000Z,32.7
2018-05-15T17:39:00.000Z,32.7
2018-05-15T17:40:45.000Z,32
2018-05-15T17:42:00.000Z,32.6
2018-05-15T17:43:00.000Z,32.6
2018-05-15T17:45:00.000Z,32.6
2018-05-15T17:46:44.000Z,32.6
2018-05-15T17:48:01.000Z,32.6
2018-05-15T17:49:01.000Z,32.6
2018-05-15T17:50:01.000Z,32.6
2018-05-15T17:52:01.000Z,32.7
2018-05-15T17:53:01.000Z,32.7
2018-05-15T17:54:01.000Z,32.7
2018-05-15T17:56:01.000Z,32.7
2018-05-15T17:58:01.000Z,32.7
2018-05-15T17:59:01.000Z,32.7
2018-05-15T18:01:01.000Z,32.7
2018-05-15T18:02:01.000Z,32.7
2018-05-15T18:03:45.000Z,32.7
2018-05-15T18:05:01.000Z,32.7
2018-05-15T18:06:01.000Z,32.7
2018-05-15T18:08:01.000Z,32.7
2018-05-15T18:10:01.000Z,32.7
2018-05-15T18:11:45.000Z,32.6
2018-05-15T18:13:01.000Z,32.6
2018-05-15T18:14:01.000Z,32.6
2018-05-15T18:15:45.000Z,32.6
2018-05-15T18:17:01.000Z,32.6
2018-05-15T18:18:01.000Z,32.6
2018-05-15T18:19:01.000Z,32.6
2018-05-15T18:21:01.000Z,32.7
2018-05-15T18:22:45.000Z,32.7
2018-05-15T18:24:01.000Z,32.6
2018-05-15T18:25:45.000Z,32.6
2018-05-15T18:27:01.000Z,32.5
2018-05-15T18:28:01.000Z,32.5
2018-05-15T18:29:01.000Z,32.5
2018-05-15T18:30:45.000Z,32.6
2018-05-15T18:32:01.000Z,32.6
2018-05-15T18:34:01.000Z,32.5
2018-05-15T18:36:01.000Z,32.3
2018-05-15T18:37:45.000Z,32.3
2018-05-15T18:39:01.000Z,32.2
2018-05-15T18:40:01.000Z,32.2
2018-05-15T18:42:01.000Z,32.3
2018-05-15T18:44:01.000Z,32.3
2018-05-15T18:45:01.000Z,32.3
2018-05-15T18:47:01.000Z,32.3
2018-05-15T18:49:01.000Z,32.3
2018-05-15T18:50:01.000Z,32.3
2018-05-15T18:52:00.000Z,32.3
2018-05-15T18:54:00.000Z,32.3
2018-05-15T18:55:00.000Z,32.3
2018-05-15T18:56:00.000Z,32.3
2018-05-15T18:57:00.000Z,32.3
2018-05-15T18:58:00.000Z,32.4
2018-05-15T19:00:00.000Z,32.4
2018-05-15T19:01:00.000Z,32.4
2018-05-15T19:03:00.000Z,32.3
2018-05-15T19:04:00.000Z,32.3
2018-05-15T19:06:00.000Z,32.3
2018-05-15T19:08:00.000Z,32.2
2018-05-15T19:10:00.000Z,32.1
2018-05-15T19:11:00.000Z,32.1
2018-05-15T19:13:00.000Z,32.1
2018-05-15T19:15:00.000Z,32.1
2018-05-15T19:16:00.000Z,32.1
2018-05-15T19:17:45.000Z,32.1
2018-05-15T19:19:00.000Z,32.1
2018-05-15T19:20:00.000Z,32.1
2018-05-15T19:21:00.000Z,32.2
2018-05-15T19:23:00.000Z,32.2
2018-05-15T19:24:00.000Z,32.2
2018-05-15T19:25:00.000Z,32.3
2018-05-15T19:27:00.000Z,32.3
2018-05-15T19:28:00.000Z,32.3
2018-05-15T19:30:00.000Z,32.3
2018-05-15T19:32:00.000Z,32.2
2018-05-15T19:33:00.000Z,32.2
2018-05-15T19:34:00.000Z,32.2
2018-05-15T19:36:00.000Z,32.2
2018-05-15T19:38:00.000Z,32.2
2018-05-15T19:39:45.000Z,32.1
2018-05-15T19:41:00.000Z,32
2018-05-15T19:42:00.000Z,32
2018-05-15T19:44:00.000Z,32
2018-05-15T19:46:00.000Z,32
2018-05-15T19:47:00.000Z,32
2018-05-15T19:49:00.000Z,32
2018-05-15T19:51:00.000Z,31.9
2018-05-15T19:53:00.000Z,31.9
2018-05-15T19:54:00.000Z,31.9
2018-05-15T19:56:00.000Z,31.9
2018-05-15T19:58:00.000Z,31.9
2018-05-15T20:00:00.000Z,31.9
2018-05-15T20:02:00.000Z,31.8
2018-05-15T20:03:00.000Z,31.8
2018-05-15T20:05:00.000Z,31.8
2018-05-15T20:06:00.000Z,31.7
2018-05-15T20:07:45.000Z,31.8
2018-05-15T20:09:00.000Z,31.8
2018-05-15T20:11:00.000Z,31.8
2018-05-15T20:12:00.000Z,31.8
2018-05-15T20:13:00.000Z,31.8
2018-05-15T20:15:00.000Z,31.8
2018-05-15T20:17:00.000Z,31.7
2018-05-15T20:19:00.000Z,31.6
2018-05-15T20:20:00.000Z,31.6
2018-05-15T20:21:45.000Z,31.7
2018-05-15T20:23:00.000Z,31.7
2018-05-15T20:24:00.000Z,31.7
2018-05-15T20:25:00.000Z,31.8
2018-05-15T20:26:45.000Z,31.9
2018-05-15T20:28:00.000Z,31.9
2018-05-15T20:29:00.000Z,31.9
2018-05-15T20:30:45.000Z,31.9
2018-05-15T20:32:00.000Z,31.9
2018-05-15T20:34:00.000Z,31.8
2018-05-15T20:35:00.000Z,31.8
2018-05-15T20:36:00.000Z,31.9
2018-05-15T20:37:00.000Z,31.9
2018-05-15T20:38:00.000Z,32
2018-05-15T20:40:00.000Z,32
2018-05-15T20:41:00.000Z,32
2018-05-15T20:43:00.000Z,32
2018-05-15T20:44:00.000Z,32
2018-05-15T20:45:00.000Z,32.1
2018-05-15T20:47:00.000Z,32
2018-05-15T20:49:00.000Z,31.9
2018-05-15T20:50:00.000Z,31.9
2018-05-15T20:51:00.000Z,31.9
2018-05-15T20:53:00.000Z,31.8
2018-05-15T20:54:00.000Z,31.8
2018-05-15T20:56:00.000Z,31.8
2018-05-15T20:58:00.000Z,31.7
2018-05-15T21:00:00.000Z,31.7
2018-05-15T21:02:00.000Z,31.7
2018-05-15T21:04:00.000Z,31.7
2018-05-15T21:05:00.000Z,31.7
2018-05-15T21:07:00.000Z,31.7
2018-05-15T21:08:00.000Z,31.7
2018-05-15T21:10:00.000Z,31.8
2018-05-15T21:12:00.000Z,31.8
2018-05-15T21:13:00.000Z,31.8
2018-05-15T21:14:44.000Z,31.8
2018-05-15T21:16:00.000Z,31.8
2018-05-15T21:17:00.000Z,31.8
2018-05-15T21:19:00.000Z,31.8